createdAt,value
2023-02-07T00:01:14.879Z,284.81
2023-02-07T00:04:39.255Z,271.54
2023-02-07T00:08:00.107Z,275.85
2023-02-07T00:11:37.114Z,306.80
2023-02-07T00:14:57.768Z,294.68
2023-02-07T00:18:18.480Z,309.82
2023-02-07T00:21:39.452Z,286.63
2023-02-07T00:25:09.603Z,258.55
2023-02-07T00:28:33.130Z,273.18
2023-02-07T00:31:56.974Z,242.42
2023-02-07T00:35:19.197Z,185.16
2023-02-07T00:38:40.165Z,255.72
2023-02-07T00:42:08.081Z,264.85
2023-02-07T00:45:40.586Z,223.85
2023-02-07T00:49:07.494Z,223.13
2023-02-07T00:52:28.181Z,240.72
2023-02-07T00:55:48.880Z,239.22
2023-02-07T00:59:10.440Z,237.22
2023-02-07T01:02:33.774Z,239.94
2023-02-07T01:05:54.690Z,235.88
2023-02-07T01:09:29.177Z,243.45
2023-02-07T01:12:55.685Z,213.43
2023-02-07T01:16:28.397Z,200.12
2023-02-07T01:19:52.078Z,188.94
2023-02-07T01:23:15.622Z,190.56
2023-02-07T01:26:45.646Z,229.07
2023-02-07T01:30:11.881Z,241.55
2023-02-07T01:33:32.655Z,249.17
2023-02-07T01:36:56.139Z,232.67
2023-02-07T01:40:17.283Z,210.85
2023-02-07T01:43:39.240Z,213.22
2023-02-07T01:47:00.758Z,196.97
2023-02-07T01:50:32.104Z,200.70
2023-02-07T01:54:15.481Z,200.16
2023-02-07T01:57:36.590Z,194.03
2023-02-07T02:00:58.440Z,198.18
2023-02-07T02:04:19.088Z,198.59
2023-02-07T02:07:42.964Z,203.08
2023-02-07T02:11:47.891Z,214.70
2023-02-07T02:15:38.125Z,226.11
2023-02-07T02:19:44.476Z,233.53
2023-02-07T02:23:39.608Z,223.46
2023-02-07T02:27:18.922Z,222.89
2023-02-07T02:31:16.712Z,220.04
2023-02-07T02:34:58.217Z,223.85
2023-02-07T02:38:33.958Z,226.68
2023-02-07T02:42:10.485Z,230.00
2023-02-07T02:45:42.270Z,226.22
2023-02-07T02:49:20.945Z,208.55
2023-02-07T02:52:50.659Z,169.00
2023-02-07T02:56:32.500Z,143.85
2023-02-07T03:00:06.781Z,137.48
2023-02-07T03:04:24.436Z,141.00
2023-02-07T03:07:58.151Z,173.42
2023-02-07T03:11:17.232Z,163.29
2023-02-07T03:14:37.278Z,167.36
2023-02-07T03:17:57.512Z,160.62
2023-02-07T03:21:14.489Z,165.30
2023-02-07T03:24:32.578Z,164.63
2023-02-07T03:27:43.503Z,146.77
2023-02-07T03:30:57.781Z,132.43
2023-02-07T03:34:14.520Z,115.76
2023-02-07T03:37:30.908Z,123.70
2023-02-07T03:40:47.845Z,142.86
2023-02-07T03:43:57.305Z,156.80
2023-02-07T03:47:03.449Z,167.27
2023-02-07T03:50:11.004Z,165.56
2023-02-07T03:53:17.164Z,168.38
2023-02-07T03:56:26.554Z,177.96
2023-02-07T03:59:34.312Z,195.56
2023-02-07T04:02:41.042Z,194.29
2023-02-07T04:05:49.800Z,186.26
2023-02-07T04:08:56.803Z,185.02
2023-02-07T04:12:07.875Z,162.69
2023-02-07T04:15:16.313Z,149.76
2023-02-07T04:18:22.420Z,157.13
2023-02-07T04:21:32.405Z,150.75
2023-02-07T04:24:38.285Z,152.32
2023-02-07T04:27:47.837Z,147.11
2023-02-07T04:30:54.594Z,155.72
2023-02-07T04:34:04.927Z,151.35
2023-02-07T04:37:11.867Z,161.38
2023-02-07T04:40:19.263Z,169.03
2023-02-07T04:43:28.189Z,179.66
2023-02-07T04:46:41.548Z,171.36
2023-02-07T04:49:47.567Z,140.59
2023-02-07T04:52:57.797Z,125.09
2023-02-07T04:56:06.326Z,129.75
2023-02-07T04:59:15.680Z,133.31
2023-02-07T05:02:21.521Z,135.26
2023-02-07T05:05:28.746Z,135.10
2023-02-07T05:08:34.762Z,131.82
2023-02-07T05:11:41.452Z,132.42
2023-02-07T05:14:50.009Z,130.77
2023-02-07T05:17:57.280Z,129.12
2023-02-07T05:21:07.836Z,129.77
2023-02-07T05:24:14.800Z,130.21
2023-02-07T05:27:20.699Z,127.93
2023-02-07T05:30:30.506Z,140.49
2023-02-07T05:33:36.191Z,221.11
2023-02-07T05:36:43.528Z,215.02
2023-02-07T05:39:49.556Z,222.34
2023-02-07T05:42:57.338Z,247.14
2023-02-07T05:46:06.167Z,223.50
2023-02-07T05:49:16.573Z,220.34
2023-02-07T05:52:22.558Z,208.26
2023-02-07T05:55:29.557Z,228.81
2023-02-07T05:58:35.541Z,227.32
2023-02-07T06:01:43.803Z,217.03
2023-02-07T06:05:04.802Z,194.15
2023-02-07T06:08:25.616Z,194.26
2023-02-07T06:11:33.184Z,202.49
2023-02-07T06:14:39.569Z,228.12
2023-02-07T06:17:49.004Z,207.97
2023-02-07T06:20:55.419Z,200.17
2023-02-07T06:24:02.243Z,216.71
2023-02-07T06:27:12.693Z,240.86
2023-02-07T06:30:19.605Z,261.47
2023-02-07T06:33:28.285Z,270.06
2023-02-07T06:36:35.246Z,239.46
2023-02-07T06:39:41.373Z,226.10
2023-02-07T06:42:53.212Z,234.75
2023-02-07T06:45:59.890Z,250.16
2023-02-07T06:49:11.512Z,258.82
2023-02-07T06:52:17.799Z,260.21
2023-02-07T06:55:24.790Z,265.38
2023-02-07T06:58:37.080Z,260.84
2023-02-07T07:01:44.608Z,262.16
2023-02-07T07:04:53.363Z,239.02
2023-02-07T07:08:01.994Z,222.32
2023-02-07T07:11:08.415Z,225.52
2023-02-07T07:14:16.179Z,230.20
2023-02-07T07:17:22.191Z,246.03
2023-02-07T07:20:38.764Z,267.24
2023-02-07T07:23:44.908Z,250.44
2023-02-07T07:26:54.481Z,253.36
2023-02-07T07:30:00.562Z,244.34
2023-02-07T07:33:10.742Z,216.81
2023-02-07T07:36:19.404Z,229.35
2023-02-07T07:39:26.640Z,225.82
2023-02-07T07:42:32.659Z,225.27
2023-02-07T07:45:59.796Z,224.73
2023-02-07T07:49:05.820Z,221.01
2023-02-07T07:52:15.246Z,205.56
2023-02-07T07:55:21.595Z,184.77
2023-02-07T07:58:30.809Z,157.52
2023-02-07T08:01:36.933Z,162.85
2023-02-07T08:04:43.747Z,169.56
2023-02-07T08:07:52.407Z,175.60
2023-02-07T08:11:05.478Z,219.47
2023-02-07T08:14:11.422Z,196.78
2023-02-07T08:17:23.270Z,243.31
2023-02-07T08:20:36.158Z,259.69
2023-02-07T08:23:45.954Z,280.71
2023-02-07T08:26:51.980Z,309.80
2023-02-07T08:29:58.911Z,302.23
2023-02-07T08:33:05.031Z,280.82
2023-02-07T08:36:12.281Z,266.81
2023-02-07T08:39:27.085Z,258.07
2023-02-07T08:42:36.613Z,257.96
2023-02-07T08:45:42.794Z,263.06
2023-02-07T08:48:50.094Z,268.81
2023-02-07T08:51:56.807Z,263.81
2023-02-07T08:55:08.294Z,266.65
2023-02-07T08:58:14.400Z,278.93
2023-02-07T09:01:23.669Z,285.16
2023-02-07T09:04:29.926Z,288.12
2023-02-07T09:07:36.666Z,266.02
2023-02-07T09:10:47.490Z,222.99
2023-02-07T09:13:54.414Z,212.00
2023-02-07T09:17:03.868Z,208.05
2023-02-07T09:20:11.860Z,204.52
2023-02-07T09:23:20.907Z,211.86
2023-02-07T09:26:32.449Z,221.92
2023-02-07T09:29:38.716Z,202.90
2023-02-07T09:32:46.107Z,159.85
2023-02-07T09:35:54.859Z,154.88
2023-02-07T09:39:03.784Z,163.20
2023-02-07T09:42:34.955Z,148.95
2023-02-07T09:45:51.678Z,155.96
2023-02-07T09:49:13.397Z,165.86
2023-02-07T09:52:32.193Z,174.83
2023-02-07T09:55:52.912Z,191.29
2023-02-07T09:59:25.174Z,193.46
2023-02-07T10:02:47.720Z,180.32
2023-02-07T10:06:17.459Z,171.27
2023-02-07T10:09:43.442Z,175.20
2023-02-07T10:13:41.708Z,175.33
2023-02-07T10:17:31.609Z,165.60
2023-02-07T10:20:49.254Z,164.12
2023-02-07T10:24:27.729Z,176.24
2023-02-07T10:27:48.892Z,155.31
2023-02-07T10:31:05.356Z,152.56
2023-02-07T10:34:24.622Z,132.47
2023-02-07T10:37:40.476Z,146.91
2023-02-07T10:41:03.484Z,155.42
2023-02-07T10:44:16.717Z,161.99
2023-02-07T10:47:26.402Z,150.36
2023-02-07T10:50:35.354Z,156.03
2023-02-07T10:54:04.691Z,156.08
2023-02-07T10:57:23.734Z,183.72
2023-02-07T11:00:38.517Z,154.04
2023-02-07T11:03:44.818Z,143.90
2023-02-07T11:07:04.596Z,143.57
2023-02-07T11:10:21.590Z,161.73
2023-02-07T11:13:32.799Z,146.96
2023-02-07T11:16:39.331Z,149.96
2023-02-07T11:19:49.177Z,154.84
2023-02-07T11:23:00.179Z,158.11
2023-02-07T11:26:08.740Z,170.62
2023-02-07T11:29:22.267Z,168.60
2023-02-07T11:32:31.740Z,178.69
2023-02-07T11:35:40.099Z,177.17
2023-02-07T11:38:53.974Z,175.00
2023-02-07T11:42:04.771Z,178.61
2023-02-07T11:45:18.572Z,180.36
2023-02-07T11:48:31.574Z,201.02
2023-02-07T11:51:40.099Z,287.73
2023-02-07T11:54:57.831Z,207.34
2023-02-07T11:58:17.996Z,212.00
2023-02-07T12:01:32.809Z,190.81
2023-02-07T12:04:42.471Z,204.05
2023-02-07T12:07:55.385Z,196.53
2023-02-07T12:11:15.554Z,203.16
2023-02-07T12:14:35.975Z,199.85
2023-02-07T12:17:59.755Z,207.67
2023-02-07T12:21:21.145Z,233.58
2023-02-07T12:24:37.118Z,210.17
2023-02-07T12:27:53.397Z,202.84
2023-02-07T12:31:17.963Z,203.37
2023-02-07T12:34:36.909Z,185.14
2023-02-07T12:37:55.673Z,198.99
2023-02-07T12:41:15.682Z,206.06
2023-02-07T12:44:37.690Z,184.57
2023-02-07T12:48:07.029Z,170.73
2023-02-07T12:51:33.605Z,182.57
2023-02-07T12:54:58.500Z,187.05
2023-02-07T12:58:31.887Z,166.52
2023-02-07T13:01:52.820Z,158.00
2023-02-07T13:05:46.905Z,159.43
2023-02-07T13:09:10.914Z,154.01
2023-02-07T13:12:28.134Z,139.28
2023-02-07T13:15:50.173Z,131.42
2023-02-07T13:19:14.714Z,124.61
2023-02-07T13:22:40.093Z,131.83
2023-02-07T13:25:53.436Z,132.06
2023-02-07T13:29:04.369Z,115.26
2023-02-07T13:32:21.829Z,114.88
2023-02-07T13:35:38.349Z,99.69
2023-02-07T13:39:11.509Z,98.48
2023-02-07T13:42:36.404Z,91.51
2023-02-07T13:45:59.266Z,96.63
2023-02-07T13:49:22.523Z,97.52
2023-02-07T13:52:46.100Z,90.00
2023-02-07T13:55:53.810Z,91.33
2023-02-07T13:59:12.976Z,97.47
2023-02-07T14:02:24.775Z,101.97
2023-02-07T14:05:37.572Z,103.51
2023-02-07T14:08:48.221Z,96.49
2023-02-07T14:12:04.793Z,105.88
2023-02-07T14:16:02.050Z,97.73
2023-02-07T14:19:14.243Z,138.86
2023-02-07T14:22:24.875Z,109.63
2023-02-07T14:25:46.949Z,90.58
2023-02-07T14:28:52.961Z,93.06
2023-02-07T14:32:04.119Z,91.95
2023-02-07T14:35:40.831Z,84.75
2023-02-07T14:39:07.132Z,80.79
2023-02-07T14:42:24.941Z,75.26
2023-02-07T14:45:36.340Z,79.77
2023-02-07T14:48:54.291Z,84.87
2023-02-07T14:52:10.682Z,91.63
2023-02-07T14:55:27.575Z,86.34
2023-02-07T14:58:45.663Z,85.21
2023-02-07T15:01:51.681Z,81.35
2023-02-07T15:04:58.588Z,75.16
2023-02-07T15:08:22.091Z,66.18
2023-02-07T15:11:30.649Z,68.45
2023-02-07T15:14:39.713Z,68.90
2023-02-07T15:17:47.829Z,72.84
2023-02-07T15:20:59.490Z,69.87
2023-02-07T15:24:19.822Z,70.01
2023-02-07T15:27:28.831Z,71.38
2023-02-07T15:30:37.381Z,81.60
2023-02-07T15:33:53.777Z,84.04
2023-02-07T15:37:03.989Z,81.88
2023-02-07T15:40:20.486Z,81.08
2023-02-07T15:43:35.498Z,80.11
2023-02-07T15:46:54.489Z,78.16
2023-02-07T15:50:04.153Z,73.63
2023-02-07T15:53:11.960Z,70.95
2023-02-07T15:56:22.901Z,71.22
2023-02-07T15:59:34.670Z,72.88
2023-02-07T16:02:51.603Z,75.97
2023-02-07T16:06:10.285Z,80.41
2023-02-07T16:09:40.555Z,81.41
2023-02-07T16:12:53.356Z,80.66
2023-02-07T16:16:03.515Z,80.68
2023-02-07T16:19:20.457Z,89.49
2023-02-07T16:22:34.725Z,111.07
2023-02-07T16:25:41.228Z,120.11
2023-02-07T16:28:51.724Z,125.46
2023-02-07T16:31:59.315Z,130.63
2023-02-07T16:35:06.161Z,137.74
2023-02-07T16:38:12.155Z,118.13
2023-02-07T16:41:32.613Z,115.66
2023-02-07T16:44:41.258Z,116.41
2023-02-07T16:47:49.679Z,121.38
2023-02-07T16:50:55.708Z,124.65
2023-02-07T16:54:02.560Z,123.56
2023-02-07T16:57:08.927Z,129.22
2023-02-07T17:00:24.122Z,130.29
2023-02-07T17:03:30.192Z,126.92
2023-02-07T17:06:37.187Z,122.42
2023-02-07T17:09:43.312Z,114.26
2023-02-07T17:12:50.738Z,97.71
2023-02-07T17:15:59.776Z,103.69
2023-02-07T17:19:14.393Z,100.39
2023-02-07T17:22:20.397Z,130.53
2023-02-07T17:25:30.931Z,116.14
2023-02-07T17:28:37.578Z,109.51
2023-02-07T17:31:49.482Z,104.64
2023-02-07T17:34:55.741Z,99.66
2023-02-07T17:38:03.086Z,92.22
2023-02-07T17:41:10.026Z,88.49
2023-02-07T17:44:21.595Z,85.96
2023-02-07T17:47:30.126Z,86.45
2023-02-07T17:50:41.569Z,86.32
2023-02-07T17:53:47.657Z,85.66
2023-02-07T17:56:55.687Z,86.47
2023-02-07T18:00:01.849Z,87.64
2023-02-07T18:03:21.994Z,88.12
2023-02-07T18:06:31.398Z,91.13
2023-02-07T18:09:38.290Z,92.62
2023-02-07T18:12:44.406Z,93.31
2023-02-07T18:15:51.638Z,95.47
2023-02-07T18:19:01.017Z,96.08
2023-02-07T18:22:08.785Z,104.49
2023-02-07T18:25:15.555Z,123.25
2023-02-07T18:28:22.582Z,127.37
2023-02-07T18:31:28.876Z,114.19
2023-02-07T18:34:38.703Z,117.77
2023-02-07T18:37:45.177Z,124.14
2023-02-07T18:40:52.029Z,142.03
2023-02-07T18:43:58.014Z,108.38
2023-02-07T18:47:04.886Z,91.89
2023-02-07T18:50:15.923Z,91.20
2023-02-07T18:53:23.202Z,93.33
2023-02-07T18:56:30.148Z,93.01
2023-02-07T18:59:37.739Z,93.06
2023-02-07T19:02:43.902Z,95.27
2023-02-07T19:05:53.263Z,152.98
2023-02-07T19:09:00.411Z,115.18
2023-02-07T19:12:09.869Z,126.92
2023-02-07T19:15:16.911Z,143.55
2023-02-07T19:18:24.116Z,103.64
2023-02-07T19:21:33.272Z,99.80
2023-02-07T19:24:42.318Z,98.72
2023-02-07T19:27:48.465Z,98.37
2023-02-07T19:30:55.329Z,97.35
2023-02-07T19:34:03.187Z,96.86
2023-02-07T19:37:12.701Z,95.39
2023-02-07T19:40:18.938Z,99.56
2023-02-07T19:43:26.321Z,101.43
2023-02-07T19:46:33.005Z,104.49
2023-02-07T19:49:40.400Z,104.71
2023-02-07T19:52:49.081Z,104.98
2023-02-07T19:55:56.116Z,109.07
2023-02-07T19:59:04.345Z,111.63
2023-02-07T20:02:11.308Z,115.22
2023-02-07T20:05:17.424Z,112.18
2023-02-07T20:08:27.035Z,107.94
2023-02-07T20:11:34.070Z,104.88
2023-02-07T20:14:41.243Z,107.37
2023-02-07T20:17:51.181Z,109.73
2023-02-07T20:21:06.224Z,109.27
2023-02-07T20:24:21.858Z,105.73
2023-02-07T20:27:30.441Z,101.34
2023-02-07T20:30:38.326Z,101.63
2023-02-07T20:33:50.605Z,93.04
2023-02-07T20:36:59.000Z,91.45
2023-02-07T20:40:09.579Z,93.76
2023-02-07T20:43:15.709Z,94.10
2023-02-07T20:46:22.703Z,143.00
2023-02-07T20:49:37.215Z,98.95
2023-02-07T20:52:43.977Z,92.47
2023-02-07T20:55:52.617Z,96.40
2023-02-07T20:59:00.893Z,89.78
2023-02-07T21:02:09.915Z,90.54
2023-02-07T21:05:17.563Z,92.24
2023-02-07T21:08:25.248Z,93.44
2023-02-07T21:11:42.505Z,96.02
2023-02-07T21:14:52.607Z,100.98
2023-02-07T21:17:59.426Z,97.95
2023-02-07T21:21:14.178Z,93.80
2023-02-07T21:24:22.070Z,93.81
2023-02-07T21:27:30.723Z,99.40
2023-02-07T21:30:41.849Z,109.92
2023-02-07T21:33:49.868Z,104.19
2023-02-07T21:37:01.933Z,97.87
2023-02-07T21:40:09.917Z,93.71
2023-02-07T21:43:22.012Z,94.22
2023-02-07T21:46:33.086Z,93.03
2023-02-07T21:49:39.984Z,93.19
2023-02-07T21:52:46.006Z,92.18
2023-02-07T21:55:52.890Z,93.95
2023-02-07T21:59:05.229Z,97.60
2023-02-07T22:02:14.882Z,97.90
2023-02-07T22:05:21.255Z,95.31
2023-02-07T22:08:28.075Z,94.02
2023-02-07T22:11:37.820Z,95.24
2023-02-07T22:14:47.316Z,100.79
2023-02-07T22:17:53.240Z,101.83
2023-02-07T22:21:07.463Z,105.08
2023-02-07T22:24:18.490Z,105.22
2023-02-07T22:27:25.302Z,100.05
2023-02-07T22:30:33.899Z,88.68
2023-02-07T22:33:40.856Z,81.79
2023-02-07T22:36:48.923Z,80.00
2023-02-07T22:39:55.626Z,81.69
2023-02-07T22:43:01.507Z,86.27
2023-02-07T22:46:16.060Z,88.26
2023-02-07T22:49:22.213Z,85.07
2023-02-07T22:52:29.176Z,88.63
2023-02-07T22:55:36.621Z,86.83
2023-02-07T22:58:44.655Z,87.87
2023-02-07T23:01:53.405Z,88.61
2023-02-07T23:05:00.244Z,94.15
2023-02-07T23:08:06.319Z,93.77
2023-02-07T23:11:21.912Z,101.36
2023-02-07T23:14:27.856Z,95.12
2023-02-07T23:17:37.646Z,87.68
2023-02-07T23:20:47.576Z,88.10
2023-02-07T23:23:54.753Z,86.98
2023-02-07T23:27:00.622Z,90.28
2023-02-07T23:30:08.408Z,91.37
2023-02-07T23:33:16.932Z,93.36
2023-02-07T23:36:24.817Z,95.26
2023-02-07T23:39:30.829Z,90.91
2023-02-07T23:42:38.053Z,92.04
2023-02-07T23:45:44.143Z,97.16
2023-02-07T23:48:53.580Z,94.16
2023-02-07T23:51:59.483Z,96.18
2023-02-07T23:55:23.124Z,103.67
2023-02-07T23:58:31.233Z,99.20
